Time;durP1;ratioP1;P1;durP2;ratioP2;P2;SDS_P1;SDS_P2;PMS_P1;PMS_P2;Temp;Humidity;BMP_temperature;BMP_pressure;BME280_temperature;BME280_humidity;BME280_pressure;Samples;Min_cycle;Max_cycle;Signal;HPM_P1;HPM_P2
2023/06/25 00:04:25;;;;;;;7.00;4.72;;;;;;;24.06;40.77;101918.19;16136137;19;129412;-58
2023/06/25 00:09:53;;;;;;;4.90;4.40;;;;;;;24.07;40.67;101909.53;16137226;19;130311;-56
2023/06/25 00:15:15;;;;;;;5.22;4.10;;;;;;;24.04;40.87;101901.69;16138405;19;130239;-55
2023/06/25 00:20:37;;;;;;;5.95;4.70;;;;;;;24.04;40.45;101900.81;16140085;19;129498;-57
2023/06/25 00:25:59;;;;;;;5.18;4.07;;;;;;;24.04;41.05;101896.09;16136110;19;131036;-57
2023/06/25 00:31:21;;;;;;;7.45;4.45;;;;;;;24.03;40.76;101897.19;16133120;19;130821;-57
2023/06/25 00:36:45;;;;;;;4.65;4.25;;;;;;;24.03;40.71;101893.53;16136064;19;131808;-57
2023/06/25 00:42:09;;;;;;;4.53;3.67;;;;;;;24.02;40.80;101881.53;16138644;19;129288;-57
2023/06/25 00:47:32;;;;;;;4.30;3.90;;;;;;;24.01;40.42;101877.03;16138842;19;129548;-58
2023/06/25 00:52:57;;;;;;;4.32;3.90;;;;;;;24.01;40.64;101870.59;16137106;19;135241;-56
2023/06/25 00:58:22;;;;;;;4.68;4.22;;;;;;;24.00;40.75;101874.53;16134465;19;129991;-56
2023/06/25 01:03:54;;;;;;;5.45;4.20;;;;;;;24.00;40.65;101871.72;16133520;19;129786;-57
2023/06/25 01:09:17;;;;;;;7.00;4.30;;;;;;;24.00;40.85;101863.34;16132585;19;130502;-56
2023/06/25 01:14:40;;;;;;;4.85;4.35;;;;;;;23.99;40.78;101854.09;16121180;19;131864;-55
2023/06/25 01:20:05;;;;;;;5.88;4.13;;;;;;;23.97;40.75;101848.78;16115243;19;129494;-54
2023/06/25 01:25:28;;;;;;;5.05;4.35;;;;;;;23.97;40.86;101845.13;16117832;19;130334;-58
2023/06/25 01:30:51;;;;;;;5.05;3.88;;;;;;;23.97;41.15;101839.53;16114623;19;130233;-55
2023/06/25 01:36:14;;;;;;;3.97;3.63;;;;;;;23.96;40.75;101827.53;16121807;19;131337;-55
2023/06/25 01:41:36;;;;;;;5.35;3.97;;;;;;;23.95;40.56;101820.25;16120449;19;129847;-57
2023/06/25 01:46:58;;;;;;;4.85;4.13;;;;;;;23.94;41.11;101812.97;16118381;19;129965;-58
2023/06/25 01:52:20;;;;;;;4.68;3.95;;;;;;;23.93;40.93;101811.25;16121434;19;130980;-57
2023/06/25 01:57:42;;;;;;;4.65;3.95;;;;;;;23.93;40.82;101811.25;16118290;19;130963;-56
2023/06/25 02:03:04;;;;;;;4.68;3.70;;;;;;;23.93;41.03;101807.63;16118659;19;131416;-56
2023/06/25 02:08:26;;;;;;;5.05;3.97;;;;;;;23.92;40.78;101801.19;16112911;19;129583;-54
2023/06/25 02:13:48;;;;;;;4.18;3.63;;;;;;;23.92;41.23;101790.00;16115746;19;129599;-55
2023/06/25 02:19:10;;;;;;;4.43;3.92;;;;;;;23.92;40.76;101789.19;16116510;19;129173;-58
2023/06/25 02:24:33;;;;;;;4.63;4.20;;;;;;;23.90;41.20;101775.44;16114026;19;131645;-56
2023/06/25 02:29:55;;;;;;;5.10;4.63;;;;;;;23.89;40.90;101770.97;16112481;19;130373;-56
2023/06/25 02:35:17;;;;;;;4.20;3.78;;;;;;;23.88;41.24;101763.69;16114674;19;129995;-52
2023/06/25 02:40:39;;;;;;;4.45;4.05;;;;;;;23.88;40.99;101765.66;16114435;19;130251;-54
2023/06/25 02:46:01;;;;;;;4.32;3.92;;;;;;;23.88;40.95;101766.47;16114173;19;130787;-57
2023/06/25 02:51:23;;;;;;;4.20;3.80;;;;;;;23.87;40.79;101764.81;16111390;19;131282;-58
2023/06/25 02:56:46;;;;;;;4.05;3.65;;;;;;;23.86;41.08;101763.13;16105861;19;129126;-57
2023/06/25 03:02:08;;;;;;;5.13;4.10;;;;;;;23.86;41.01;101753.88;16113788;19;130615;-58
2023/06/25 03:07:30;;;;;;;4.45;3.80;;;;;;;23.86;41.01;101762.28;16114036;19;130920;-56
2023/06/25 03:12:52;;;;;;;4.95;3.80;;;;;;;23.84;41.05;101756.09;16115795;19;130625;-58
2023/06/25 03:18:14;;;;;;;4.38;3.97;;;;;;;23.84;40.96;101756.94;16114285;19;134072;-57
2023/06/25 03:23:35;;;;;;;4.20;3.80;;;;;;;23.83;41.28;101763.66;16114368;19;131203;-57
2023/06/25 03:28:58;;;;;;;4.50;3.55;;;;;;;23.83;40.95;101752.47;16114178;19;129287;-57
2023/06/25 03:34:20;;;;;;;4.07;3.63;;;;;;;23.81;41.08;101747.16;16108417;19;131463;-57
2023/06/25 03:39:42;;;;;;;4.25;3.85;;;;;;;23.82;40.94;101753.56;16113671;19;129515;-55
2023/06/25 03:45:04;;;;;;;6.18;3.85;;;;;;;23.81;41.33;101749.09;16109090;19;129964;-58
2023/06/25 03:50:26;;;;;;;3.88;3.47;;;;;;;23.81;40.76;101749.09;16109941;19;129539;-57
2023/06/25 03:55:48;;;;;;;3.97;3.63;;;;;;;23.80;41.04;101737.09;16111252;19;130079;-57
2023/06/25 04:01:10;;;;;;;4.35;3.85;;;;;;;23.79;41.17;101743.78;16112387;19;130895;-58
2023/06/25 04:06:32;;;;;;;5.07;3.63;;;;;;;23.80;41.15;101748.25;16112627;19;130363;-58
2023/06/25 04:11:54;;;;;;;3.88;3.58;;;;;;;23.79;40.95;101731.75;16111187;19;131185;-58
2023/06/25 04:17:16;;;;;;;4.38;3.97;;;;;;;23.79;40.97;101731.75;16104662;19;129887;-55
2023/06/25 04:22:38;;;;;;;4.20;3.80;;;;;;;23.79;41.11;101734.53;16109125;19;129574;-56
2023/06/25 04:27:59;;;;;;;4.18;3.78;;;;;;;23.78;41.13;101742.09;16109661;19;130242;-58
2023/06/25 04:33:21;;;;;;;4.47;3.60;;;;;;;23.79;41.26;101734.53;16105533;19;131779;-57
2023/06/25 04:38:43;;;;;;;4.32;3.63;;;;;;;23.78;41.11;101738.44;16105508;19;130662;-55
2023/06/25 04:44:05;;;;;;;4.60;3.40;;;;;;;23.79;41.27;101745.72;16109009;19;130323;-57
2023/06/25 04:49:27;;;;;;;4.07;3.63;;;;;;;23.78;41.26;101732.84;16112909;19;130334;-57
2023/06/25 04:54:49;;;;;;;3.72;3.42;;;;;;;23.78;41.14;101732.84;16119151;19;130489;-57
2023/06/25 05:00:12;;;;;;;3.88;3.47;;;;;;;23.78;41.52;101736.50;16119489;19;131365;-58
2023/06/25 05:05:34;;;;;;;3.70;3.40;;;;;;;23.79;41.14;101723.34;16126277;19;133965;-57
2023/06/25 05:10:59;;;;;;;4.10;3.38;;;;;;;23.79;40.90;101731.75;16124220;19;129419;-57
2023/06/25 05:16:21;;;;;;;5.20;3.30;;;;;;;23.78;41.16;101716.94;16122445;19;130116;-59
2023/06/25 05:21:43;;;;;;;3.20;2.97;;;;;;;23.80;41.19;101725.03;16120828;19;129594;-57
2023/06/25 05:27:06;;;;;;;3.33;3.03;;;;;;;23.80;41.20;101728.69;16121756;19;129787;-58
2023/06/25 05:32:27;;;;;;;3.40;3.10;;;;;;;23.80;41.44;101725.91;16120046;19;129527;-56
2023/06/25 05:37:50;;;;;;;4.32;3.38;;;;;;;23.81;41.17;101726.72;16119661;19;130422;-57
2023/06/25 05:43:12;;;;;;;3.42;3.13;;;;;;;23.81;41.41;101727.59;16117857;19;130860;-55
2023/06/25 05:48:33;;;;;;;3.35;3.05;;;;;;;23.81;41.02;101727.59;16119721;19;135387;-58
2023/06/25 05:53:55;;;;;;;3.40;3.10;;;;;;;23.83;41.36;101730.13;16116104;19;129607;-57
2023/06/25 05:59:17;;;;;;;4.50;3.28;;;;;;;23.82;41.54;101723.66;16118346;19;129751;-57
2023/06/25 06:04:39;;;;;;;3.35;3.05;;;;;;;23.83;41.39;101732.91;16117177;19;130763;-58
2023/06/25 06:10:01;;;;;;;3.95;2.90;;;;;;;23.84;41.48;101725.34;16117227;19;129119;-57
2023/06/25 06:15:23;;;;;;;3.90;3.47;;;;;;;23.84;41.56;101737.41;16113417;19;130700;-56
2023/06/25 06:20:45;;;;;;;3.22;2.92;;;;;;;23.84;41.33;101726.22;16117208;19;130507;-55
2023/06/25 06:26:07;;;;;;;3.65;3.22;;;;;;;23.84;41.36;101734.59;16112182;19;129105;-58
2023/06/25 06:31:31;;;;;;;4.43;2.85;;;;;;;23.85;41.28;101730.69;16113542;19;130855;-58
2023/06/25 06:36:54;;;;;;;3.65;3.35;;;;;;;23.85;41.29;101727.03;16115620;19;133949;-57
2023/06/25 06:42:15;;;;;;;3.30;2.90;;;;;;;23.85;41.09;101727.91;16113824;19;131214;-58
2023/06/25 06:47:37;;;;;;;3.20;2.90;;;;;;;23.85;40.97;101722.31;16112749;19;129585;-57
2023/06/25 06:52:59;;;;;;;3.35;3.05;;;;;;;23.86;41.39;101721.22;16113499;19;129860;-56
2023/06/25 06:58:21;;;;;;;3.22;2.92;;;;;;;23.87;41.20;101722.91;16113473;19;131284;-57
2023/06/25 07:03:43;;;;;;;3.45;3.15;;;;;;;23.87;41.42;101725.69;16106050;19;130292;-56
2023/06/25 07:09:05;;;;;;;3.63;3.30;;;;;;;23.89;41.08;101723.47;16108563;19;130108;-57
2023/06/25 07:14:27;;;;;;;3.60;2.83;;;;;;;23.89;41.27;101715.06;16110447;19;130175;-56
2023/06/25 07:19:48;;;;;;;3.33;2.90;;;;;;;23.90;41.23;101713.97;16114191;19;133941;-58
2023/06/25 07:25:11;;;;;;;3.30;3.00;;;;;;;23.90;41.24;101702.78;16111314;19;130641;-58
2023/06/25 07:30:33;;;;;;;3.67;3.15;;;;;;;23.91;41.21;101715.66;16108457;19;129645;-59
2023/06/25 07:35:55;;;;;;;3.25;2.95;;;;;;;23.91;41.28;101715.66;16110158;19;131278;-54
2023/06/25 07:41:17;;;;;;;3.70;3.10;;;;;;;23.92;41.29;101706.16;16113575;19;131583;-56
2023/06/25 07:46:39;;;;;;;3.58;3.25;;;;;;;23.94;41.30;101708.69;16110159;19;129740;-57
2023/06/25 07:52:03;;;;;;;4.30;3.47;;;;;;;23.95;41.16;101704.78;16109747;19;129831;-57
2023/06/25 07:57:25;;;;;;;4.90;3.22;;;;;;;23.96;40.98;101701.75;16109905;19;130083;-58
2023/06/25 08:02:47;;;;;;;5.22;3.30;;;;;;;23.97;41.07;101703.44;16108033;19;129688;-56
2023/06/25 08:08:09;;;;;;;3.15;2.85;;;;;;;23.96;41.67;101698.97;16112875;19;129655;-57
2023/06/25 08:13:31;;;;;;;3.97;3.40;;;;;;;23.96;41.38;101690.56;16112941;19;129834;-57
2023/06/25 08:18:53;;;;;;;5.80;3.70;;;;;;;23.96;41.50;101690.56;16112363;19;130064;-57
2023/06/25 08:24:15;;;;;;;4.53;3.53;;;;;;;23.98;41.44;101693.09;16116852;19;130326;-57
2023/06/25 08:29:37;;;;;;;4.75;3.17;;;;;;;23.98;41.20;101693.09;16125105;19;131632;-56
2023/06/25 08:34:59;;;;;;;6.03;3.50;;;;;;;23.98;41.26;101687.50;16123539;19;129831;-56
2023/06/25 08:40:22;;;;;;;4.20;3.40;;;;;;;24.05;41.20;101676.09;16126675;19;129436;-52
2023/06/25 08:45:44;;;;;;;7.25;3.70;;;;;;;24.13;40.96;101672.81;16124677;19;130038;-56
2023/06/25 08:51:15;;;;;;;8.55;3.20;;;;;;;24.18;40.79;101670.06;16125489;19;132447;-54
2023/06/25 08:56:39;;;;;;;8.85;3.72;;;;;;;24.17;41.01;101662.78;16117184;19;130192;-51
2023/06/25 09:02:01;;;;;;;6.25;4.00;;;;;;;24.15;40.92;101659.41;16122711;19;129960;-53
2023/06/25 09:07:22;;;;;;;6.82;3.70;;;;;;;24.14;41.11;101665.28;16121386;19;130258;-56
2023/06/25 09:12:47;;;;;;;8.77;3.58;;;;;;;24.12;41.12;101660.81;16119781;19;130060;-50
2023/06/25 09:18:09;;;;;;;4.73;3.57;;;;;;;24.10;41.03;101654.63;16125532;19;131583;-51
2023/06/25 09:23:37;;;;;;;6.38;3.50;;;;;;;24.11;41.10;101658.28;16120902;19;129578;-55
2023/06/25 09:28:59;;;;;;;12.18;3.75;;;;;;;24.09;41.13;101658.53;16123489;19;129855;-56
2023/06/25 09:34:23;;;;;;;8.27;3.03;;;;;;;24.10;41.16;101651.84;16117145;19;130307;-59
2023/06/25 09:39:45;;;;;;;9.82;3.85;;;;;;;24.10;41.26;101646.25;16113530;19;131152;-55
2023/06/25 09:45:09;;;;;;;5.10;3.63;;;;;;;24.11;41.69;101649.91;16100844;19;132523;-54
2023/06/25 09:50:38;;;;;;;6.32;3.85;;;;;;;24.14;41.82;101645.72;16110721;19;130909;-55
2023/06/25 09:56:03;;;;;;;8.50;3.63;;;;;;;24.11;41.88;101635.94;16117519;19;130452;-54
2023/06/25 10:01:25;;;;;;;9.07;3.90;;;;;;;24.17;41.16;101637.63;16110620;19;131243;-54
2023/06/25 10:06:48;;;;;;;13.23;4.03;;;;;;;24.19;40.58;101624.25;16114306;19;131387;-54
2023/06/25 10:12:10;;;;;;;5.70;3.85;;;;;;;24.19;40.93;101618.66;16114757;19;129519;-55
2023/06/25 10:17:32;;;;;;;8.32;3.92;;;;;;;24.24;40.61;101624.31;16114648;19;130953;-56
2023/06/25 10:23:03;;;;;;;4.38;3.85;;;;;;;24.27;40.54;101618.19;16116716;19;131273;-54
2023/06/25 10:28:34;;;;;;;7.50;3.80;;;;;;;24.28;40.46;101613.44;16111859;19;130799;-56
2023/06/25 10:34:05;;;;;;;8.05;3.67;;;;;;;24.26;39.94;101602.50;16115882;19;129700;-58
2023/06/25 10:39:38;;;;;;;5.68;3.50;;;;;;;24.24;40.39;101596.38;16115255;19;129319;-56
2023/06/25 10:45:02;;;;;;;7.25;3.60;;;;;;;24.22;40.10;101589.31;16108283;19;132127;-56
2023/06/25 10:50:23;;;;;;;4.70;3.42;;;;;;;24.21;40.55;101591.28;16112764;19;130256;-54
2023/06/25 10:55:48;;;;;;;4.75;3.80;;;;;;;24.22;40.40;101584.56;16112638;19;130432;-55
2023/06/25 11:01:10;;;;;;;8.25;4.03;;;;;;;24.21;40.22;101582.88;16107749;19;130470;-56
2023/06/25 11:06:37;;;;;;;5.80;3.75;;;;;;;24.22;40.95;101575.31;16112299;19;129696;-55
2023/06/25 11:11:59;;;;;;;4.78;3.60;;;;;;;24.23;40.55;101569.47;16109389;19;131681;-56
2023/06/25 11:17:22;;;;;;;6.93;4.20;;;;;;;24.23;41.00;101558.31;16107694;19;130403;-56
2023/06/25 11:22:44;;;;;;;6.78;4.00;;;;;;;24.24;40.59;101557.22;16108081;19;130292;-53
2023/06/25 11:28:13;;;;;;;8.60;3.63;;;;;;;24.25;40.95;101553.28;16114020;19;129349;-54
2023/06/25 11:33:35;;;;;;;9.25;4.25;;;;;;;24.34;42.39;101544.41;16107283;19;130221;-53
2023/06/25 11:38:57;;;;;;;7.90;4.18;;;;;;;24.37;42.57;101532.69;16106749;19;131097;-56
2023/06/25 11:44:21;;;;;;;10.48;4.50;;;;;;;24.37;42.40;101536.31;16112306;19;130769;-56
2023/06/25 11:49:52;;;;;;;5.03;4.00;;;;;;;24.38;42.62;101534.34;16101655;19;129927;-54
2023/06/25 11:55:14;;;;;;;15.85;4.13;;;;;;;24.35;42.54;101524.56;16106433;19;129794;-55
2023/06/25 12:00:38;;;;;;;5.65;3.53;;;;;;;24.34;42.35;101517.28;16106312;19;130464;-55
2023/06/25 12:06:03;;;;;;;6.60;3.78;;;;;;;24.36;42.89;101508.63;16099215;19;129864;-54
2023/06/25 12:11:26;;;;;;;14.35;4.32;;;;;;;24.40;42.67;101505.03;16108044;19;130061;-51
2023/06/25 12:16:48;;;;;;;8.60;4.00;;;;;;;24.42;42.67;101501.94;16105211;19;129712;-51
2023/06/25 12:22:10;;;;;;;9.52;4.38;;;;;;;24.49;42.48;101499.75;16102306;19;130427;-53
2023/06/25 12:27:32;;;;;;;8.00;4.78;;;;;;;24.54;42.01;101487.75;16106551;19;129646;-56
2023/06/25 12:32:54;;;;;;;7.55;4.15;;;;;;;24.61;41.51;101493.09;16105177;19;131861;-56
2023/06/25 12:38:18;;;;;;;8.95;4.57;;;;;;;24.62;41.75;101483.53;16102958;19;130827;-56
2023/06/25 12:43:39;;;;;;;11.48;4.18;;;;;;;24.60;41.75;101469.03;16103309;19;130788;-54
2023/06/25 12:49:01;;;;;;;8.55;4.07;;;;;;;24.57;41.92;101465.66;16104802;19;129756;-56
2023/06/25 12:54:23;;;;;;;7.97;4.00;;;;;;;24.56;41.52;101457.50;16103473;19;130748;-53
2023/06/25 12:59:45;;;;;;;13.27;4.32;;;;;;;24.52;41.45;101465.63;16105515;19;130330;-52
2023/06/25 13:05:10;;;;;;;9.82;4.50;;;;;;;24.52;41.80;101454.44;16108874;19;130577;-56
2023/06/25 13:10:32;;;;;;;6.18;4.43;;;;;;;24.51;41.63;101455.53;16108995;19;129533;-56
2023/06/25 13:15:54;;;;;;;9.13;4.53;;;;;;;24.51;41.50;101449.94;16122110;19;131233;-55
2023/06/25 13:21:16;;;;;;;6.68;4.47;;;;;;;24.52;41.20;101440.44;16118419;19;130516;-55
2023/06/25 13:26:38;;;;;;;5.38;4.35;;;;;;;24.51;41.66;101444.34;16116845;19;130608;-56
2023/06/25 13:32:00;;;;;;;6.97;4.03;;;;;;;24.49;41.43;101446.59;16112981;19;130931;-54
2023/06/25 13:37:22;;;;;;;6.47;4.25;;;;;;;24.50;41.42;101437.06;16120032;19;131075;-54
2023/06/25 13:42:44;;;;;;;6.32;4.38;;;;;;;24.51;41.45;101424.78;16120029;19;130458;-55
2023/06/25 13:48:07;;;;;;;6.68;4.28;;;;;;;24.51;41.35;101424.78;16113591;19;130533;-55
2023/06/25 13:53:31;;;;;;;9.75;4.10;;;;;;;24.52;41.50;101423.66;16119530;19;129830;-55
2023/06/25 13:58:53;;;;;;;8.32;4.53;;;;;;;24.52;41.11;101420.88;16119768;19;129882;-56
2023/06/25 14:04:15;;;;;;;5.90;3.65;;;;;;;24.54;41.09;101420.59;16117491;19;130431;-56
2023/06/25 14:09:37;;;;;;;5.53;4.10;;;;;;;24.54;41.19;101407.44;16121659;19;130382;-56
2023/06/25 14:15:00;;;;;;;5.20;4.15;;;;;;;24.54;40.78;101404.66;16121004;19;129783;-57
2023/06/25 14:20:22;;;;;;;7.13;4.00;;;;;;;24.56;40.93;101395.97;16118082;19;129824;-58
2023/06/25 14:25:44;;;;;;;5.55;4.30;;;;;;;24.57;40.98;101392.91;16123041;19;131953;-57
2023/06/25 14:31:06;;;;;;;7.35;4.47;;;;;;;24.58;40.72;101396.53;16117842;19;130579;-55
2023/06/25 14:36:28;;;;;;;5.25;3.63;;;;;;;24.57;40.80;101387.31;16117746;19;130325;-55
2023/06/25 14:41:51;;;;;;;6.82;4.45;;;;;;;24.58;40.64;101383.41;16111378;19;130297;-56
2023/06/25 14:47:13;;;;;;;4.60;3.65;;;;;;;24.60;40.52;101379.50;16114643;19;131524;-55
2023/06/25 14:52:34;;;;;;;7.43;4.05;;;;;;;24.60;40.55;101368.31;16112325;19;129782;-54
2023/06/25 14:57:58;;;;;;;7.30;4.68;;;;;;;24.60;40.47;101366.34;16112579;19;130432;-57
2023/06/25 15:03:20;;;;;;;8.48;4.38;;;;;;;24.62;40.71;101358.53;16117906;19;130800;-53
2023/06/25 15:08:42;;;;;;;5.55;4.32;;;;;;;24.62;40.58;101360.47;16113407;19;131368;-56
2023/06/25 15:14:04;;;;;;;8.55;4.00;;;;;;;24.64;40.79;101361.03;16115133;19;129866;-53
2023/06/25 15:19:26;;;;;;;6.15;4.13;;;;;;;24.64;40.45;101347.03;16109067;19;130006;-53
2023/06/25 15:24:48;;;;;;;6.50;4.55;;;;;;;24.65;40.82;101349.59;16096523;19;130483;-55
2023/06/25 15:30:10;;;;;;;5.35;4.63;;;;;;;24.66;40.73;101330.81;16096680;19;130940;-56
2023/06/25 15:35:32;;;;;;;7.20;5.00;;;;;;;24.66;41.05;101334.47;16103130;19;131142;-55
2023/06/25 15:40:56;;;;;;;8.45;4.57;;;;;;;24.67;40.79;101329.72;16108452;19;130767;-54
2023/06/25 15:46:18;;;;;;;6.07;4.70;;;;;;;24.68;41.13;101323.00;16106976;19;130255;-56
2023/06/25 15:51:40;;;;;;;20.42;4.82;;;;;;;24.69;41.29;101313.50;16101951;19;130404;-56
2023/06/25 15:57:03;;;;;;;9.00;4.97;;;;;;;24.70;41.27;101315.16;16111566;19;130312;-54
2023/06/25 16:02:25;;;;;;;12.10;5.28;;;;;;;24.71;41.30;101311.25;16108408;19;131250;-56
2023/06/25 16:07:47;;;;;;;12.65;5.32;;;;;;;24.72;41.22;101298.94;16110524;19;132224;-53
2023/06/25 16:13:09;;;;;;;8.10;5.65;;;;;;;24.72;41.38;101302.56;16113033;19;131159;-53
2023/06/25 16:18:31;;;;;;;8.68;5.95;;;;;;;24.74;41.28;101285.50;16109349;19;130513;-51
2023/06/25 16:23:53;;;;;;;11.23;7.22;;;;;;;24.76;41.17;101288.03;16110736;19;131145;-52
2023/06/25 16:29:15;;;;;;;11.52;6.75;;;;;;;24.78;41.28;101297.81;16111811;19;130761;-54
2023/06/25 16:34:37;;;;;;;10.70;7.15;;;;;;;24.78;41.08;101289.44;16107371;19;130693;-50
2023/06/25 16:39:59;;;;;;;12.38;7.65;;;;;;;24.80;41.40;101290.00;16109842;19;130389;-56
2023/06/25 16:45:21;;;;;;;12.93;6.90;;;;;;;24.82;41.09;101279.34;16119840;19;129565;-54
2023/06/25 16:50:43;;;;;;;9.38;7.25;;;;;;;24.84;41.10;101279.06;16120157;19;130136;-55
2023/06/25 16:56:05;;;;;;;8.95;7.57;;;;;;;24.88;41.20;101269.00;16127073;19;130694;-57
2023/06/25 17:01:27;;;;;;;9.88;6.93;;;;;;;24.90;41.22;101265.94;16124289;19;130073;-54
2023/06/25 17:06:49;;;;;;;14.13;7.35;;;;;;;24.91;41.09;101254.47;16120773;19;135053;-54
2023/06/25 17:12:13;;;;;;;11.75;7.00;;;;;;;24.93;40.87;101257.81;16118728;19;130230;-57
2023/06/25 17:17:38;;;;;;;8.10;6.82;;;;;;;24.95;40.96;101254.75;16119566;19;131704;-56
2023/06/25 17:23:00;;;;;;;8.60;6.78;;;;;;;24.98;41.06;101248.59;16119105;19;129618;-56
2023/06/25 17:28:22;;;;;;;8.63;6.35;;;;;;;24.99;40.85;101248.31;16116398;19;130164;-56
2023/06/25 17:33:44;;;;;;;10.35;6.00;;;;;;;25.00;41.27;101254.72;16121486;19;129461;-54
2023/06/25 17:39:07;;;;;;;8.90;6.00;;;;;;;25.03;41.26;101251.38;16117396;19;129730;-55
2023/06/25 17:44:28;;;;;;;8.27;5.70;;;;;;;25.05;41.00;101251.94;16120356;19;129664;-52
2023/06/25 17:49:51;;;;;;;9.10;5.68;;;;;;;25.07;40.70;101243.25;16121278;19;130648;-55
2023/06/25 17:55:13;;;;;;;6.50;5.82;;;;;;;25.08;40.80;101245.78;16120869;19;130256;-52
2023/06/25 18:00:35;;;;;;;7.68;6.03;;;;;;;25.09;40.95;101241.84;16119200;19;130305;-55
2023/06/25 18:05:57;;;;;;;8.40;5.70;;;;;;;25.09;40.82;101247.47;16116820;19;129684;-54
2023/06/25 18:11:26;;;;;;;13.07;5.85;;;;;;;25.12;40.88;101244.06;16113608;19;131340;-55
2023/06/25 18:16:48;;;;;;;20.83;6.28;;;;;;;25.12;41.08;101240.44;16112529;19;129780;-53
2023/06/25 18:22:10;;;;;;;14.93;5.20;;;;;;;25.10;40.77;101243.53;16116863;19;131243;-53
2023/06/25 18:27:32;;;;;;;18.67;5.72;;;;;;;25.09;41.11;101236.25;16118742;19;129879;-52
2023/06/25 18:32:54;;;;;;;14.35;6.13;;;;;;;25.07;41.14;101232.03;16115571;19;134255;-55
2023/06/25 18:38:16;;;;;;;11.80;5.80;;;;;;;25.06;40.93;101230.38;16102531;19;130367;-55
2023/06/25 18:43:38;;;;;;;13.38;5.05;;;;;;;25.10;40.85;101232.34;16113704;19;131648;-55
2023/06/25 18:49:00;;;;;;;12.10;5.03;;;;;;;25.12;40.72;101234.84;16109710;19;131194;-57
2023/06/25 18:54:24;;;;;;;7.45;4.47;;;;;;;25.10;40.70;101226.75;16113114;19;131388;-55
2023/06/25 18:59:46;;;;;;;9.80;4.75;;;;;;;25.06;40.78;101222.81;16112628;19;129659;-54
2023/06/25 19:05:08;;;;;;;6.13;4.68;;;;;;;25.03;41.36;101223.38;16111711;19;130410;-52
2023/06/25 19:10:30;;;;;;;7.68;4.43;;;;;;;25.03;41.36;101220.59;16109097;19;129770;-56
2023/06/25 19:15:52;;;;;;;6.53;4.13;;;;;;;25.01;40.94;101217.22;16115026;19;130047;-55
2023/06/25 19:21:14;;;;;;;5.53;3.88;;;;;;;25.01;41.37;101217.22;16113574;19;134676;-54
2023/06/25 19:26:36;;;;;;;8.75;3.78;;;;;;;25.00;41.34;101215.53;16110825;19;129327;-56
2023/06/25 19:31:58;;;;;;;7.13;3.80;;;;;;;24.98;41.24;101212.22;16113856;19;130187;-54
2023/06/25 19:37:20;;;;;;;6.13;3.70;;;;;;;24.94;41.19;101211.09;16109449;19;130262;-54
2023/06/25 19:42:43;;;;;;;6.72;3.33;;;;;;;24.94;41.44;101216.69;16110951;19;130398;-52
2023/06/25 19:48:05;;;;;;;5.63;3.03;;;;;;;24.94;41.45;101208.28;16106843;19;130138;-52
2023/06/25 19:53:32;;;;;;;5.10;3.00;;;;;;;24.91;41.15;101215.31;16112560;19;129885;-49
2023/06/25 19:58:55;;;;;;;7.97;3.03;;;;;;;24.90;41.33;101210.81;16111769;19;133977;-51
2023/06/25 20:04:17;;;;;;;5.97;3.10;;;;;;;24.90;41.35;101209.97;16110314;19;129178;-54
2023/06/25 20:09:40;;;;;;;3.67;3.03;;;;;;;24.88;41.51;101219.47;16112305;19;131075;-52
2023/06/25 20:15:01;;;;;;;3.63;2.80;;;;;;;24.85;41.25;101211.66;16109928;19;129870;-54
2023/06/25 20:20:23;;;;;;;8.20;3.47;;;;;;;24.86;42.30;101221.69;16112076;19;131755;-51
2023/06/25 20:25:46;;;;;;;7.43;3.88;;;;;;;24.93;43.13;101215.00;16119992;19;130372;-54
2023/06/25 20:31:08;;;;;;;8.88;3.78;;;;;;;24.94;43.30;101217.50;16121737;19;129293;-55
2023/06/25 20:36:30;;;;;;;7.20;3.97;;;;;;;24.96;43.20;101220.06;16113237;19;130520;-53
2023/06/25 20:41:51;;;;;;;9.75;4.13;;;;;;;24.98;43.32;101220.59;16122019;19;130034;-51
2023/06/25 20:47:13;;;;;;;10.50;4.13;;;;;;;24.98;43.64;101220.59;16118242;19;131099;-52
2023/06/25 20:52:36;;;;;;;6.30;4.05;;;;;;;25.00;43.44;101226.75;16122577;19;130816;-54
2023/06/25 20:57:57;;;;;;;7.38;3.72;;;;;;;25.01;43.60;101225.63;16118875;19;129759;-54
2023/06/25 21:03:19;;;;;;;8.95;3.70;;;;;;;25.00;43.44;101221.13;16119313;19;129628;-53
2023/06/25 21:08:42;;;;;;;10.00;3.88;;;;;;;25.01;43.40;101226.47;16115706;19;131485;-59
2023/06/25 21:14:05;;;;;;;6.07;3.55;;;;;;;24.99;43.62;101225.91;16119445;19;130323;-58
2023/06/25 21:19:28;;;;;;;6.68;3.75;;;;;;;25.00;43.58;101221.13;16108755;19;132458;-58
2023/06/25 21:24:50;;;;;;;5.70;3.17;;;;;;;24.99;43.49;101223.13;16116490;19;130715;-57
2023/06/25 21:30:12;;;;;;;9.13;3.92;;;;;;;24.99;43.64;101214.72;16109631;19;130224;-58
2023/06/25 21:35:34;;;;;;;8.88;4.05;;;;;;;24.99;43.26;101209.13;16112932;19;131121;-57
2023/06/25 21:40:56;;;;;;;5.40;3.15;;;;;;;24.99;43.38;101213.88;16116494;19;131053;-55
2023/06/25 21:46:18;;;;;;;6.28;3.75;;;;;;;24.99;43.54;101213.88;16115899;19;130836;-57
2023/06/25 21:51:40;;;;;;;4.82;3.25;;;;;;;24.98;43.20;101213.03;16109774;19;130507;-58
2023/06/25 21:57:02;;;;;;;3.20;2.72;;;;;;;25.00;43.75;101208.00;16114934;19;130163;-57
2023/06/25 22:02:24;;;;;;;7.22;3.40;;;;;;;25.05;43.84;101212.75;16114634;19;131115;-56
2023/06/25 22:07:46;;;;;;;5.63;3.15;;;;;;;25.09;43.55;101213.00;16113834;19;131122;-52
2023/06/25 22:13:12;;;;;;;4.55;3.15;;;;;;;25.12;43.17;101213.28;16114474;19;129453;-57
2023/06/25 22:18:37;;;;;;;6.80;3.10;;;;;;;25.15;43.60;101206.28;16104413;19;130909;-56
2023/06/25 22:23:59;;;;;;;5.47;2.78;;;;;;;25.17;43.28;101215.25;16107838;19;129766;-58
2023/06/25 22:29:21;;;;;;;5.20;3.10;;;;;;;25.18;43.37;101217.75;16111272;19;130506;-56
2023/06/25 22:35:02;;;;;;;4.78;2.88;;;;;;;25.21;43.36;101215.50;16110556;19;130263;-54
2023/06/25 22:40:24;;;;;;;5.18;2.83;;;;;;;25.23;43.48;101216.06;16110631;19;130900;-58
2023/06/25 22:45:46;;;;;;;5.80;2.70;;;;;;;25.19;43.46;101216.63;16111267;19;129853;-58
2023/06/25 22:51:09;;;;;;;3.80;2.90;;;;;;;25.17;43.21;101213.28;16112161;19;130814;-57
2023/06/25 22:56:31;;;;;;;3.17;2.70;;;;;;;25.15;43.42;101223.91;16112552;19;130488;-58
2023/06/25 23:01:53;;;;;;;4.47;2.40;;;;;;;25.12;43.17;101235.66;16115207;19;130023;-58
2023/06/25 23:07:15;;;;;;;3.22;2.30;;;;;;;25.10;43.21;101237.94;16115647;19;130998;-59
2023/06/25 23:12:37;;;;;;;5.88;2.50;;;;;;;25.09;43.45;101236.25;16108820;19;131020;-58
2023/06/25 23:17:59;;;;;;;4.35;2.38;;;;;;;25.08;43.28;101240.19;16115170;19;131036;-58
2023/06/25 23:23:21;;;;;;;3.47;2.13;;;;;;;25.07;43.63;101237.66;16104881;19;129762;-58
2023/06/25 23:28:44;;;;;;;3.50;2.58;;;;;;;25.05;43.48;101237.94;16101740;19;130941;-58
2023/06/25 23:34:07;;;;;;;2.85;2.25;;;;;;;25.05;43.32;101242.72;16105110;19;130425;-58
2023/06/25 23:39:29;;;;;;;2.85;2.42;;;;;;;25.02;43.31;101242.16;16106111;19;132016;-58
2023/06/25 23:44:50;;;;;;;3.20;2.22;;;;;;;25.03;43.27;101242.97;16105343;19;129796;-58
2023/06/25 23:50:13;;;;;;;3.78;2.40;;;;;;;25.02;43.35;101253.34;16105313;19;130598;-59
2023/06/25 23:55:34;;;;;;;3.92;2.28;;;;;;;25.01;43.23;101250.81;16104865;19;131580;-58
